Terminal Aerodrome Forecast
Issued by NWS

Home | Current Version | Previous Version | Text Only | Print | Product List | Glossary On
Versions: 1 2 3 4 5 6 7 8 9 10 11 12 13 14 15 16
000
FTUS44 KLZK 241700
TAFBPK
TAF
KBPK 241720Z 2418/2518 10005KT P6SM SCT040
     FM250000 VRB03KT P6SM SKC
     FM251500 17005KT P6SM SCT040=

USA.gov is the U.S. government's official web portal to all federal, state and local government web resources and services.